createdAt,value
2019-04-29T00:01:17.550Z,2.65
2019-04-29T00:03:45.717Z,2.50
2019-04-29T00:06:13.886Z,2.50
2019-04-29T00:08:42.073Z,2.17
2019-04-29T00:11:10.252Z,2.45
2019-04-29T00:13:38.405Z,2.33
2019-04-29T00:16:17.394Z,3.40
2019-04-29T00:19:03.700Z,3.25
2019-04-29T00:21:32.486Z,2.70
2019-04-29T00:24:03.977Z,2.72
2019-04-29T00:26:30.984Z,3.25
2019-04-29T00:28:59.168Z,4.10
2019-04-29T00:31:27.346Z,3.00
2019-04-29T00:33:55.511Z,3.15
2019-04-29T00:36:25.699Z,3.15
2019-04-29T00:39:10.240Z,3.77
2019-04-29T00:41:56.399Z,3.75
2019-04-29T00:44:24.857Z,3.40
2019-04-29T00:46:53.020Z,3.72
2019-04-29T00:49:21.257Z,4.03
2019-04-29T00:51:49.436Z,3.47
2019-04-29T00:54:19.617Z,2.90
2019-04-29T00:56:47.796Z,3.20
2019-04-29T00:59:16.271Z,2.90
2019-04-29T01:01:44.857Z,3.15
2019-04-29T01:04:13.026Z,2.80
2019-04-29T01:06:41.509Z,3.10
2019-04-29T01:09:11.319Z,3.10
2019-04-29T01:11:39.801Z,2.98
2019-04-29T01:14:08.297Z,3.05
2019-04-29T01:16:36.496Z,2.87
2019-04-29T01:19:04.658Z,3.92
2019-04-29T01:21:32.830Z,3.42
2019-04-29T01:24:01.293Z,3.12
2019-04-29T01:26:40.131Z,3.90
2019-04-29T01:29:13.207Z,4.25
2019-04-29T01:31:41.398Z,5.00
2019-04-29T01:34:11.496Z,3.72
2019-04-29T01:36:41.617Z,3.37
2019-04-29T01:39:10.228Z,3.70
2019-04-29T01:41:45.978Z,5.00
2019-04-29T01:44:21.785Z,4.55
2019-04-29T01:46:49.964Z,4.85
2019-04-29T01:49:18.469Z,4.53
2019-04-29T01:51:46.949Z,5.10
2019-04-29T01:54:15.121Z,5.95
2019-04-29T01:56:43.384Z,4.75
2019-04-29T01:59:11.790Z,4.80
2019-04-29T02:01:39.964Z,5.50
2019-04-29T02:04:08.130Z,4.92
2019-04-29T02:06:36.313Z,5.37
2019-04-29T02:09:10.139Z,5.15
2019-04-29T02:11:38.335Z,5.40
2019-04-29T02:14:06.505Z,5.15
2019-04-29T02:16:34.688Z,5.05
2019-04-29T02:19:02.854Z,5.50
2019-04-29T02:21:31.107Z,5.22
2019-04-29T02:24:04.173Z,5.03
2019-04-29T02:26:32.359Z,5.40
2019-04-29T02:29:00.531Z,5.47
2019-04-29T02:31:42.738Z,5.25
2019-04-29T02:34:10.912Z,6.30
2019-04-29T02:36:39.080Z,6.28
2019-04-29T02:39:26.103Z,6.35
2019-04-29T02:44:29.647Z,5.15
2019-04-29T02:46:57.829Z,4.65
2019-04-29T02:49:25.999Z,5.33
2019-04-29T02:51:54.194Z,5.10
2019-04-29T02:54:24.023Z,5.83
2019-04-29T02:57:10.557Z,5.25
2019-04-29T02:59:40.367Z,5.17
2019-04-29T03:02:25.247Z,5.92
2019-04-29T03:05:12.864Z,5.78
2019-04-29T03:07:41.108Z,4.85
2019-04-29T03:10:10.543Z,6.58
2019-04-29T03:12:38.635Z,5.97
2019-04-29T03:15:06.930Z,6.72
2019-04-29T03:17:35.436Z,6.33
2019-04-29T03:20:15.065Z,6.62
2019-04-29T03:22:44.904Z,7.30
2019-04-29T03:25:13.434Z,7.22
2019-04-29T03:27:41.614Z,7.00
2019-04-29T03:30:10.040Z,6.58
2019-04-29T03:32:38.199Z,7.42
2019-04-29T03:35:07.294Z,6.60
2019-04-29T03:37:35.501Z,5.83
2019-04-29T03:40:03.912Z,6.55
2019-04-29T03:42:32.384Z,6.65
2019-04-29T03:45:00.559Z,7.45
2019-04-29T03:47:29.050Z,6.28
2019-04-29T03:49:57.233Z,6.75
2019-04-29T03:52:25.413Z,5.62
2019-04-29T03:54:53.591Z,6.20
2019-04-29T03:57:21.775Z,6.53
2019-04-29T03:59:50.221Z,6.97
2019-04-29T04:02:23.050Z,15.55
2019-04-29T04:04:52.848Z,11.12
2019-04-29T04:07:39.526Z,9.30
2019-04-29T04:10:08.543Z,9.50
2019-04-29T04:12:36.995Z,10.95
2019-04-29T04:15:06.932Z,10.60
2019-04-29T04:17:49.018Z,12.68
2019-04-29T04:20:17.197Z,11.40
2019-04-29T04:25:37.128Z,13.10
2019-04-29T04:28:05.305Z,12.85
2019-04-29T04:30:33.546Z,10.80
2019-04-29T04:33:01.665Z,10.75
2019-04-29T04:35:30.232Z,12.80
2019-04-29T04:37:58.401Z,11.68
2019-04-29T04:40:37.319Z,14.65
2019-04-29T04:43:05.484Z,14.87
2019-04-29T04:45:33.665Z,14.78
2019-04-29T04:48:01.842Z,12.98
2019-04-29T04:50:30.105Z,12.80
2019-04-29T04:52:58.287Z,14.70
2019-04-29T04:55:28.112Z,13.32
2019-04-29T04:57:56.287Z,12.58
2019-04-29T05:00:26.118Z,13.58
2019-04-29T05:02:54.661Z,12.55
2019-04-29T05:05:22.852Z,13.75
2019-04-29T05:07:51.022Z,13.22
2019-04-29T05:10:19.208Z,13.03
2019-04-29T05:12:47.390Z,12.00
2019-04-29T05:15:15.845Z,12.07
2019-04-29T05:17:44.324Z,13.85
2019-04-29T05:20:12.886Z,12.15
2019-04-29T05:22:42.712Z,12.07
2019-04-29T05:25:10.903Z,12.07
2019-04-29T05:27:39.379Z,12.63
2019-04-29T05:30:07.602Z,11.93
2019-04-29T05:32:35.740Z,11.90
2019-04-29T05:35:24.959Z,12.68
2019-04-29T05:37:56.748Z,10.98
2019-04-29T05:40:38.520Z,11.33
2019-04-29T05:43:08.969Z,11.53
2019-04-29T05:45:53.724Z,11.57
2019-04-29T05:48:22.225Z,12.05
2019-04-29T05:51:00.928Z,10.60
2019-04-29T05:53:30.747Z,11.53
2019-04-29T05:55:58.930Z,11.78
2019-04-29T05:58:27.407Z,11.60
2019-04-29T06:00:57.239Z,11.68
2019-04-29T06:03:25.704Z,10.88
2019-04-29T06:05:54.292Z,11.60
2019-04-29T06:08:22.768Z,10.82
2019-04-29T06:10:50.961Z,12.10
2019-04-29T06:13:19.438Z,11.50
2019-04-29T06:15:47.614Z,11.10
2019-04-29T06:18:17.719Z,11.28
2019-04-29T06:20:45.692Z,9.88
2019-04-29T06:23:13.868Z,11.93
2019-04-29T06:25:42.061Z,11.30
2019-04-29T06:28:10.238Z,10.93
2019-04-29T06:30:40.540Z,11.08
2019-04-29T06:33:08.383Z,11.35
2019-04-29T06:35:36.889Z,11.28
2019-04-29T06:38:05.067Z,10.65
2019-04-29T06:40:35.495Z,10.00
2019-04-29T06:43:03.472Z,11.85
2019-04-29T06:45:31.664Z,11.60
2019-04-29T06:47:59.843Z,10.03
2019-04-29T06:50:28.286Z,9.90
2019-04-29T06:52:56.462Z,10.15
2019-04-29T06:55:24.649Z,10.65
2019-04-29T06:57:53.122Z,10.20
2019-04-29T07:00:22.184Z,10.95
2019-04-29T07:02:51.827Z,10.45
2019-04-29T07:05:20.008Z,9.08
2019-04-29T07:07:48.187Z,10.00
2019-04-29T07:10:20.716Z,9.50
2019-04-29T07:12:47.376Z,9.68
2019-04-29T07:15:16.162Z,9.10
2019-04-29T07:17:44.344Z,7.95
2019-04-29T07:20:12.833Z,8.53
2019-04-29T07:22:41.343Z,9.50
2019-04-29T07:25:09.519Z,8.58
2019-04-29T07:27:42.987Z,8.88
2019-04-29T07:30:08.389Z,8.78
2019-04-29T07:32:36.601Z,8.48
2019-04-29T07:35:09.820Z,8.53
2019-04-29T07:37:36.919Z,9.45
2019-04-29T07:40:09.333Z,8.08
2019-04-29T07:42:37.663Z,7.92
2019-04-29T07:45:14.871Z,7.60
2019-04-29T07:47:55.738Z,7.50
2019-04-29T07:50:15.002Z,8.13
2019-04-29T07:52:45.692Z,8.05
2019-04-29T07:55:13.229Z,7.70
2019-04-29T07:57:41.669Z,7.97
2019-04-29T08:00:12.946Z,8.23
2019-04-29T08:02:40.118Z,6.72
2019-04-29T08:05:08.359Z,7.22
2019-04-29T08:07:37.820Z,7.62
2019-04-29T08:10:22.816Z,7.70
2019-04-29T08:12:37.783Z,6.90
2019-04-29T08:15:08.478Z,7.78
2019-04-29T08:17:37.861Z,7.47
2019-04-29T08:20:06.453Z,6.83
2019-04-29T08:22:34.667Z,7.80
2019-04-29T08:25:03.015Z,7.30
2019-04-29T08:27:39.785Z,6.75
2019-04-29T08:30:01.083Z,7.15
2019-04-29T08:32:31.617Z,7.03
2019-04-29T08:35:03.256Z,7.87
2019-04-29T08:37:29.363Z,6.33
2019-04-29T08:40:14.776Z,7.10
2019-04-29T08:42:41.861Z,6.08
2019-04-29T08:45:10.353Z,5.58
2019-04-29T08:47:42.888Z,5.53
2019-04-29T08:50:11.059Z,6.30
2019-04-29T08:52:39.499Z,6.30
2019-04-29T08:55:07.672Z,6.05
2019-04-29T08:57:36.608Z,6.90
2019-04-29T09:00:07.519Z,6.75
2019-04-29T09:02:35.907Z,7.42
2019-04-29T09:05:06.772Z,7.60
2019-04-29T09:07:36.165Z,7.72
2019-04-29T09:10:06.380Z,8.25
2019-04-29T09:12:34.553Z,8.00
2019-04-29T09:15:03.088Z,8.13
2019-04-29T09:17:31.591Z,8.38
2019-04-29T09:19:59.779Z,8.15
2019-04-29T09:22:29.593Z,7.78
2019-04-29T09:25:16.734Z,7.60
2019-04-29T09:27:46.822Z,7.42
2019-04-29T09:30:16.632Z,7.20
2019-04-29T09:32:44.814Z,6.60
2019-04-29T09:35:13.051Z,6.92
2019-04-29T09:37:41.242Z,8.00
2019-04-29T09:40:11.381Z,7.95
2019-04-29T09:42:45.507Z,8.40
2019-04-29T09:45:24.281Z,9.30
2019-04-29T09:47:50.016Z,8.60
2019-04-29T09:50:18.512Z,8.98
2019-04-29T09:52:46.997Z,8.13
2019-04-29T09:55:16.208Z,8.85
2019-04-29T09:57:44.391Z,8.30
2019-04-29T10:00:14.199Z,7.62
2019-04-29T10:02:48.078Z,7.17
2019-04-29T10:05:33.261Z,7.50
2019-04-29T10:08:01.452Z,7.17
2019-04-29T10:10:29.615Z,7.22
2019-04-29T10:12:57.798Z,7.80
2019-04-29T10:15:39.285Z,8.53
2019-04-29T10:18:15.137Z,7.67
2019-04-29T10:21:03.114Z,7.60
2019-04-29T10:23:31.310Z,6.53
2019-04-29T10:25:59.491Z,7.40
2019-04-29T10:28:27.676Z,7.40
2019-04-29T10:30:56.326Z,7.37
2019-04-29T10:33:24.905Z,7.22
2019-04-29T10:35:53.139Z,7.55
2019-04-29T10:38:21.307Z,7.83
2019-04-29T10:41:00.703Z,7.47
2019-04-29T10:43:36.296Z,7.12
2019-04-29T10:46:08.880Z,7.05
2019-04-29T10:48:50.437Z,6.67
2019-04-29T10:51:18.883Z,6.90
2019-04-29T10:53:50.987Z,7.05
2019-04-29T10:56:17.334Z,6.65
2019-04-29T10:58:45.829Z,6.33
2019-04-29T11:01:29.137Z,7.25
2019-04-29T11:04:00.749Z,7.20
2019-04-29T11:06:31.364Z,7.65
2019-04-29T11:09:16.004Z,6.67
2019-04-29T11:11:45.953Z,6.87
2019-04-29T11:14:18.711Z,6.55
2019-04-29T11:16:47.516Z,7.60
2019-04-29T11:19:15.685Z,8.25
2019-04-29T11:21:43.905Z,7.75
2019-04-29T11:24:22.981Z,8.08
2019-04-29T11:26:53.102Z,9.95
2019-04-29T11:29:22.027Z,9.55
2019-04-29T11:31:54.171Z,8.83
2019-04-29T11:34:33.295Z,10.32
2019-04-29T11:37:00.521Z,8.68
2019-04-29T11:39:28.688Z,8.30
2019-04-29T11:41:59.568Z,8.65
2019-04-29T11:44:27.935Z,6.42
2019-04-29T11:46:56.919Z,6.28
2019-04-29T11:49:26.728Z,7.92
2019-04-29T11:52:08.997Z,6.30
2019-04-29T11:54:24.819Z,8.33
2019-04-29T11:56:53.000Z,6.85
2019-04-29T11:59:22.847Z,6.28
2019-04-29T12:01:53.502Z,7.42
2019-04-29T12:04:28.730Z,7.75
2019-04-29T12:06:58.154Z,6.42
2019-04-29T12:09:30.409Z,5.55
2019-04-29T12:11:56.402Z,5.92
2019-04-29T12:14:29.261Z,5.85
2019-04-29T12:17:15.265Z,5.70
2019-04-29T12:19:47.881Z,5.30
2019-04-29T12:22:28.171Z,5.28
2019-04-29T12:24:45.959Z,5.33
2019-04-29T12:27:14.802Z,4.87
2019-04-29T12:29:48.525Z,4.80
2019-04-29T12:32:24.984Z,5.30
2019-04-29T12:35:00.436Z,5.17
2019-04-29T12:37:39.150Z,4.75
2019-04-29T12:40:09.773Z,6.53
2019-04-29T12:42:57.725Z,5.08
2019-04-29T12:45:27.552Z,5.12
2019-04-29T12:47:56.240Z,4.67
2019-04-29T12:50:24.437Z,4.40
2019-04-29T12:52:52.633Z,4.10
2019-04-29T12:55:43.621Z,4.00
2019-04-29T12:57:55.083Z,4.42
2019-04-29T13:00:47.534Z,4.58
2019-04-29T13:03:17.818Z,5.50
2019-04-29T13:05:58.486Z,5.45
2019-04-29T13:08:37.462Z,5.58
2019-04-29T13:11:07.311Z,5.67
2019-04-29T13:13:35.479Z,4.85
2019-04-29T13:16:20.216Z,5.30
2019-04-29T13:19:12.493Z,5.70
2019-04-29T13:21:39.357Z,6.97
2019-04-29T13:24:22.023Z,5.85
2019-04-29T13:26:42.308Z,5.85
2019-04-29T13:29:07.906Z,6.55
2019-04-29T13:31:39.007Z,5.95
2019-04-29T13:34:22.899Z,5.67
2019-04-29T13:36:37.832Z,6.62
2019-04-29T13:39:06.538Z,6.08
2019-04-29T13:41:34.724Z,6.00
2019-04-29T13:44:05.300Z,6.40
2019-04-29T13:46:51.259Z,5.70
2019-04-29T13:49:25.142Z,6.20
2019-04-29T13:51:55.246Z,6.30
2019-04-29T13:54:23.426Z,6.22
2019-04-29T13:56:56.104Z,6.33
2019-04-29T13:59:23.167Z,5.90
2019-04-29T14:02:01.275Z,6.05
2019-04-29T14:04:26.259Z,6.28
2019-04-29T14:06:57.017Z,6.20
2019-04-29T14:09:24.507Z,6.83
2019-04-29T14:12:01.398Z,7.28
2019-04-29T14:14:24.663Z,7.80
2019-04-29T14:17:11.616Z,6.83
2019-04-29T14:19:40.329Z,6.53
2019-04-29T14:21:53.394Z,6.55
2019-04-29T14:24:21.898Z,6.05
2019-04-29T14:26:50.063Z,5.45
2019-04-29T14:29:18.244Z,5.87
2019-04-29T14:31:48.059Z,5.78
2019-04-29T14:34:20.409Z,6.72
2019-04-29T14:36:48.410Z,6.17
2019-04-29T14:39:18.919Z,7.12
2019-04-29T14:41:50.965Z,6.40
2019-04-29T14:44:36.150Z,6.78
2019-04-29T14:47:21.904Z,6.05
2019-04-29T14:49:54.936Z,6.78
2019-04-29T14:52:21.991Z,6.75
2019-04-29T14:54:50.183Z,7.03
2019-04-29T14:57:19.276Z,7.05
2019-04-29T14:59:47.686Z,6.60
2019-04-29T15:02:26.803Z,8.48
2019-04-29T15:04:55.499Z,11.68
2019-04-29T15:07:23.648Z,8.45
2019-04-29T15:09:55.961Z,7.20
2019-04-29T15:12:28.589Z,8.63
2019-04-29T15:15:10.482Z,11.05
2019-04-29T15:17:45.002Z,14.00
2019-04-29T15:20:32.593Z,10.55
2019-04-29T15:23:01.174Z,7.55
2019-04-29T15:25:29.345Z,8.45
2019-04-29T15:27:57.791Z,7.35
2019-04-29T15:30:25.974Z,7.17
2019-04-29T15:32:57.932Z,7.87
2019-04-29T15:35:25.501Z,9.85
2019-04-29T15:37:53.918Z,14.23
2019-04-29T15:40:26.309Z,6.97
2019-04-29T15:42:53.501Z,7.00
2019-04-29T15:45:22.265Z,8.28
2019-04-29T15:47:50.473Z,8.43
2019-04-29T15:50:19.516Z,7.72
2019-04-29T15:52:47.880Z,7.15
2019-04-29T15:55:16.062Z,7.87
2019-04-29T15:57:49.644Z,7.10
2019-04-29T16:00:21.864Z,7.05
2019-04-29T16:02:44.710Z,6.40
2019-04-29T16:05:24.206Z,6.95
2019-04-29T16:07:57.266Z,7.33
2019-04-29T16:10:43.091Z,6.50
2019-04-29T16:13:13.148Z,9.40
2019-04-29T16:15:41.342Z,8.90
2019-04-29T16:18:10.565Z,7.25
2019-04-29T16:20:39.399Z,7.65
2019-04-29T16:23:07.594Z,7.15
2019-04-29T16:25:40.650Z,6.03
2019-04-29T16:28:05.977Z,7.40
2019-04-29T16:30:34.163Z,7.65
2019-04-29T16:33:13.091Z,5.85
2019-04-29T16:35:34.898Z,7.80
2019-04-29T16:38:05.836Z,8.18
2019-04-29T16:40:39.058Z,7.47
2019-04-29T16:43:05.686Z,7.08
2019-04-29T16:45:35.507Z,6.83
2019-04-29T16:48:03.979Z,6.92
2019-04-29T16:50:32.166Z,7.03
2019-04-29T16:53:00.335Z,6.05
2019-04-29T16:55:28.518Z,6.00
2019-04-29T16:57:59.805Z,5.10
2019-04-29T17:00:28.242Z,5.97
2019-04-29T17:02:56.416Z,6.15
2019-04-29T17:05:25.195Z,6.53
2019-04-29T17:07:53.367Z,7.10
2019-04-29T17:10:23.193Z,6.90
2019-04-29T17:12:51.845Z,5.30
2019-04-29T17:15:25.242Z,5.53
2019-04-29T17:17:50.247Z,5.47
2019-04-29T17:20:18.593Z,6.03
2019-04-29T17:22:46.766Z,5.75
2019-04-29T17:25:16.583Z,5.42
2019-04-29T17:27:58.285Z,5.37
2019-04-29T17:30:38.312Z,6.00
2019-04-29T17:33:26.318Z,5.75
2019-04-29T17:35:47.759Z,5.50
2019-04-29T17:38:16.111Z,5.72
2019-04-29T17:40:50.904Z,5.42
2019-04-29T17:43:25.056Z,6.58
2019-04-29T17:46:13.083Z,5.90
2019-04-29T17:48:43.234Z,6.20
2019-04-29T17:51:12.500Z,5.58
2019-04-29T17:53:57.218Z,6.33
2019-04-29T17:56:30.187Z,6.45
2019-04-29T17:59:06.069Z,6.62
2019-04-29T18:01:51.827Z,6.85
2019-04-29T18:04:21.929Z,6.22
2019-04-29T18:06:58.979Z,6.85
2019-04-29T18:09:36.625Z,7.08
2019-04-29T18:12:06.593Z,6.60
2019-04-29T18:14:39.076Z,7.85
2019-04-29T18:17:06.593Z,6.37
2019-04-29T18:19:52.759Z,6.80
2019-04-29T18:22:39.053Z,7.80
2019-04-29T18:25:31.051Z,6.83
2019-04-29T18:28:00.014Z,8.40
2019-04-29T18:30:35.716Z,15.25
2019-04-29T18:32:57.887Z,13.98
2019-04-29T18:35:26.060Z,9.45
2019-04-29T18:37:55.718Z,10.65
2019-04-29T18:40:25.746Z,8.75
2019-04-29T18:42:55.388Z,11.15
2019-04-29T18:45:25.399Z,11.60
2019-04-29T18:47:53.875Z,9.95
2019-04-29T18:50:22.054Z,9.55
2019-04-29T18:52:50.237Z,9.90
2019-04-29T18:55:19.126Z,12.95
2019-04-29T18:57:47.314Z,11.25
2019-04-29T19:00:19.437Z,11.33
2019-04-29T19:02:52.491Z,10.82
2019-04-29T19:05:27.781Z,11.68
2019-04-29T19:08:05.543Z,10.50
2019-04-29T19:10:32.903Z,10.85
2019-04-29T19:13:00.022Z,12.50
2019-04-29T19:15:25.606Z,11.90
2019-04-29T19:18:01.362Z,14.38
2019-04-29T19:20:25.119Z,11.53
2019-04-29T19:23:05.339Z,9.78
2019-04-29T19:25:25.425Z,13.70
2019-04-29T19:27:53.450Z,10.08
2019-04-29T19:30:26.536Z,9.55
2019-04-29T19:32:53.932Z,7.90
2019-04-29T19:35:21.757Z,8.25
2019-04-29T19:37:49.942Z,9.65
2019-04-29T19:40:18.133Z,10.75
2019-04-29T19:42:47.142Z,11.95
2019-04-29T19:45:17.342Z,12.60
2019-04-29T19:47:47.442Z,12.13
2019-04-29T19:50:19.739Z,11.28
2019-04-29T19:52:48.163Z,11.15
2019-04-29T19:55:16.344Z,10.53
2019-04-29T19:57:48.373Z,9.53
2019-04-29T20:00:17.369Z,9.80
2019-04-29T20:02:48.249Z,9.35
2019-04-29T20:05:39.539Z,8.05
2019-04-29T20:08:07.330Z,9.10
2019-04-29T20:10:44.417Z,10.75
2019-04-29T20:13:05.847Z,12.35
2019-04-29T20:15:37.620Z,12.05
2019-04-29T20:18:11.097Z,12.60
2019-04-29T20:21:08.095Z,12.25
2019-04-29T20:23:28.078Z,13.43
2019-04-29T20:26:12.274Z,14.13
2019-04-29T20:28:26.846Z,11.60
2019-04-29T20:31:08.235Z,12.95
2019-04-29T20:33:25.562Z,13.15
2019-04-29T20:35:55.813Z,10.35
2019-04-29T20:38:25.409Z,9.83
2019-04-29T20:40:55.407Z,8.70
2019-04-29T20:43:25.954Z,7.08
2019-04-29T20:45:58.000Z,6.83
2019-04-29T20:48:24.030Z,6.37
2019-04-29T20:50:53.998Z,6.12
2019-04-29T20:53:25.675Z,5.58
2019-04-29T20:55:55.244Z,6.35
2019-04-29T20:58:31.304Z,6.22
2019-04-29T21:00:58.174Z,6.55
2019-04-29T21:03:29.948Z,6.62
2019-04-29T21:05:54.990Z,6.00
2019-04-29T21:08:23.638Z,6.12
2019-04-29T21:10:55.486Z,7.30
2019-04-29T21:13:27.783Z,8.25
2019-04-29T21:16:00.407Z,8.40
2019-04-29T21:18:28.577Z,8.78
2019-04-29T21:20:59.554Z,9.45
2019-04-29T21:23:31.577Z,11.22
2019-04-29T21:26:00.562Z,11.38
2019-04-29T21:28:26.752Z,12.53
2019-04-29T21:30:55.120Z,12.75
2019-04-29T21:33:23.306Z,13.62
2019-04-29T21:36:02.126Z,12.68
2019-04-29T21:38:48.562Z,13.68
2019-04-29T21:41:20.115Z,15.40
2019-04-29T21:43:53.468Z,14.83
2019-04-29T21:46:25.667Z,16.35
2019-04-29T21:48:49.935Z,17.05
2019-04-29T21:51:18.115Z,18.05
2019-04-29T21:53:46.291Z,18.35
2019-04-29T21:56:16.052Z,18.10
2019-04-29T21:58:44.341Z,19.52
2019-04-29T22:01:15.208Z,18.62
2019-04-29T22:03:43.306Z,19.85
2019-04-29T22:06:11.500Z,21.52
2019-04-29T22:08:39.732Z,22.05
2019-04-29T22:11:07.942Z,21.48
2019-04-29T22:13:39.048Z,21.42
2019-04-29T22:16:06.827Z,20.60
2019-04-29T22:18:35.601Z,19.15
2019-04-29T22:21:06.933Z,17.92
2019-04-29T22:23:35.284Z,20.92
2019-04-29T22:26:05.068Z,19.95
2019-04-29T22:28:35.096Z,20.55
2019-04-29T22:31:05.370Z,21.40
2019-04-29T22:33:34.851Z,20.55
2019-04-29T22:36:05.180Z,18.50
2019-04-29T22:38:33.550Z,20.72
2019-04-29T22:41:05.075Z,19.32
2019-04-29T22:43:36.128Z,18.70
2019-04-29T22:46:09.316Z,16.87
2019-04-29T22:48:34.929Z,16.27
2019-04-29T22:51:05.735Z,13.00
2019-04-29T22:53:35.852Z,13.40
2019-04-29T22:56:04.222Z,12.98
2019-04-29T22:58:32.395Z,11.68
2019-04-29T23:01:02.423Z,12.30
2019-04-29T23:03:32.750Z,14.87
2019-04-29T23:06:06.870Z,12.73
2019-04-29T23:08:36.570Z,14.40
2019-04-29T23:11:04.123Z,14.83
2019-04-29T23:13:31.175Z,13.08
2019-04-29T23:16:02.143Z,13.68
2019-04-29T23:18:40.999Z,13.60
2019-04-29T23:21:17.501Z,13.28
2019-04-29T23:24:08.376Z,14.38
2019-04-29T23:26:34.844Z,14.87
2019-04-29T23:29:07.172Z,15.28
2019-04-29T23:31:35.148Z,15.23
2019-04-29T23:34:05.707Z,15.25
2019-04-29T23:36:34.076Z,18.50
2019-04-29T23:39:02.508Z,14.60
2019-04-29T23:41:33.136Z,15.58
2019-04-29T23:44:05.229Z,15.83
2019-04-29T23:46:34.170Z,16.00
2019-04-29T23:49:03.115Z,15.35
2019-04-29T23:51:36.293Z,17.55
2019-04-29T23:54:05.898Z,17.25
2019-04-29T23:56:38.526Z,18.80
2019-04-29T23:59:14.863Z,17.67
